createdAt,value
2022-11-30T00:01:13.813Z,38
2022-11-30T00:06:49.588Z,40
2022-11-30T00:12:24.887Z,26
2022-11-30T00:17:59.697Z,26
2022-11-30T00:23:44.914Z,35
2022-11-30T00:29:21.066Z,41
2022-11-30T00:34:56.309Z,24
2022-11-30T00:40:31.317Z,34
2022-11-30T00:46:07.259Z,14
2022-11-30T00:51:44.618Z,43
2022-11-30T00:57:28.460Z,26
2022-11-30T01:03:03.738Z,32
2022-11-30T01:08:41.327Z,50
2022-11-30T01:14:16.543Z,24
2022-11-30T01:19:51.841Z,32
2022-11-30T01:25:28.284Z,52
2022-11-30T01:31:04.057Z,48
2022-11-30T01:36:39.746Z,44
2022-11-30T01:42:15.845Z,54
2022-11-30T01:48:13.465Z,44
2022-11-30T01:53:46.215Z,38
2022-11-30T01:59:21.585Z,16
2022-11-30T02:04:58.064Z,36
2022-11-30T02:10:34.038Z,40
2022-11-30T02:16:42.237Z,28
2022-11-30T02:22:21.958Z,10
2022-11-30T02:27:58.057Z,24
2022-11-30T02:33:33.403Z,26
2022-11-30T02:39:17.737Z,22
2022-11-30T02:44:53.114Z,18
2022-11-30T02:50:28.176Z,8
2022-11-30T02:56:07.042Z,2
2022-11-30T03:01:42.910Z,4
2022-11-30T03:07:19.014Z,6
2022-11-30T03:12:54.080Z,8
2022-11-30T03:18:29.978Z,13
2022-11-30T03:24:04.927Z,6
2022-11-30T03:29:48.635Z,10
2022-11-30T03:35:24.219Z,4
2022-11-30T03:40:59.423Z,4
2022-11-30T03:46:56.296Z,9
2022-11-30T03:52:38.774Z,17
2022-11-30T03:58:13.961Z,26
2022-11-30T04:03:51.794Z,26
2022-11-30T04:09:28.295Z,24
2022-11-30T04:15:04.621Z,24
2022-11-30T04:20:41.759Z,16
2022-11-30T04:26:38.969Z,28
2022-11-30T04:32:39.426Z,10
2022-11-30T04:38:19.901Z,26
2022-11-30T04:43:58.544Z,22
2022-11-30T04:49:55.371Z,18
2022-11-30T04:55:27.981Z,12
2022-11-30T05:01:10.591Z,24
2022-11-30T05:06:54.385Z,14
2022-11-30T05:12:29.624Z,10
2022-11-30T05:18:05.926Z,18
2022-11-30T05:23:48.985Z,10
2022-11-30T05:29:25.540Z,16
2022-11-30T05:35:01.768Z,14
2022-11-30T05:40:37.213Z,18
2022-11-30T05:46:42.686Z,16
2022-11-30T05:52:15.565Z,8
2022-11-30T05:57:50.422Z,12
2022-11-30T06:03:26.981Z,6
2022-11-30T06:09:02.712Z,16
2022-11-30T06:14:41.733Z,20
2022-11-30T06:20:16.922Z,24
2022-11-30T06:25:52.044Z,22
2022-11-30T06:31:30.487Z,10
2022-11-30T06:37:05.409Z,16
2022-11-30T06:42:40.411Z,16
2022-11-30T06:48:39.205Z,20
2022-11-30T06:54:12.994Z,16
2022-11-30T06:59:48.244Z,16
2022-11-30T07:05:44.351Z,14
2022-11-30T07:11:19.788Z,18
2022-11-30T07:17:19.673Z,10
2022-11-30T07:23:00.263Z,10
2022-11-30T07:28:35.569Z,4
2022-11-30T07:34:12.104Z,12
2022-11-30T07:39:47.236Z,9
2022-11-30T07:45:22.953Z,12
2022-11-30T07:50:59.280Z,8
2022-11-30T07:56:37.392Z,6
2022-11-30T08:02:13.939Z,12
2022-11-30T08:07:51.368Z,14
2022-11-30T08:13:35.416Z,16
2022-11-30T08:19:11.125Z,16
2022-11-30T08:24:47.621Z,18
2022-11-30T08:30:34.563Z,8
2022-11-30T08:36:10.753Z,12
2022-11-30T08:42:12.583Z,4
2022-11-30T08:48:13.678Z,20
2022-11-30T08:53:46.793Z,20
2022-11-30T08:59:22.121Z,16
2022-11-30T09:04:57.764Z,0
2022-11-30T09:10:33.531Z,12
2022-11-30T09:16:09.416Z,18
2022-11-30T09:21:53.529Z,34
2022-11-30T09:27:29.236Z,6
2022-11-30T09:33:04.209Z,8
2022-11-30T09:38:41.334Z,20
2022-11-30T09:44:16.864Z,14
2022-11-30T09:49:53.468Z,10
2022-11-30T09:55:37.948Z,4
2022-11-30T10:01:38.174Z,6
2022-11-30T10:07:24.896Z,14
2022-11-30T10:13:00.499Z,2
2022-11-30T10:18:35.343Z,8
2022-11-30T10:24:32.226Z,4
2022-11-30T10:30:07.778Z,2
2022-11-30T10:35:43.047Z,0
2022-11-30T10:41:25.753Z,6
2022-11-30T10:47:23.018Z,4
2022-11-30T10:53:04.105Z,2
2022-11-30T10:58:39.319Z,0
2022-11-30T11:04:15.143Z,0
2022-11-30T11:09:51.606Z,2
2022-11-30T11:15:26.735Z,2
2022-11-30T11:21:08.556Z,4
2022-11-30T11:26:44.223Z,0
2022-11-30T11:32:19.214Z,2
2022-11-30T11:37:54.190Z,0
2022-11-30T11:43:29.831Z,4
2022-11-30T11:49:27.509Z,4
2022-11-30T11:55:00.545Z,4
2022-11-30T12:00:35.401Z,2
2022-11-30T12:06:10.467Z,2
2022-11-30T12:11:45.981Z,6
2022-11-30T12:17:22.096Z,2
2022-11-30T12:22:58.040Z,0
2022-11-30T12:28:33.054Z,0
2022-11-30T12:34:08.092Z,2
2022-11-30T12:39:44.821Z,6
2022-11-30T12:45:22.058Z,6
2022-11-30T12:50:58.128Z,3
2022-11-30T12:56:33.426Z,0
2022-11-30T13:02:17.840Z,4
2022-11-30T13:07:54.551Z,2
2022-11-30T13:13:29.984Z,0
2022-11-30T13:19:04.759Z,0
2022-11-30T13:24:39.776Z,0
2022-11-30T13:30:15.833Z,0
2022-11-30T13:35:51.848Z,2
2022-11-30T13:41:26.935Z,2
2022-11-30T13:47:24.063Z,2
2022-11-30T13:52:59.642Z,5
2022-11-30T13:58:35.856Z,4
2022-11-30T14:04:11.033Z,0
2022-11-30T14:09:49.547Z,0
2022-11-30T14:15:25.744Z,4
2022-11-30T14:21:01.333Z,4
2022-11-30T14:26:36.536Z,8
2022-11-30T14:32:11.760Z,2
2022-11-30T14:37:47.356Z,2
2022-11-30T14:43:22.690Z,4
2022-11-30T14:49:19.395Z,2
2022-11-30T14:54:52.810Z,2
2022-11-30T15:00:28.003Z,4
2022-11-30T15:06:03.548Z,4
2022-11-30T15:11:38.314Z,2
2022-11-30T15:17:13.625Z,6
2022-11-30T15:22:48.843Z,6
2022-11-30T15:28:23.806Z,2
2022-11-30T15:33:59.720Z,6
2022-11-30T15:39:41.491Z,4
2022-11-30T15:45:19.041Z,8
2022-11-30T15:50:54.244Z,8
2022-11-30T15:56:29.630Z,6
2022-11-30T16:02:06.352Z,4
2022-11-30T16:07:43.741Z,7
2022-11-30T16:13:19.524Z,0
2022-11-30T16:18:54.659Z,4
2022-11-30T16:24:33.226Z,0
2022-11-30T16:30:09.719Z,6
2022-11-30T16:35:44.557Z,6
2022-11-30T16:41:19.966Z,2
2022-11-30T16:47:16.700Z,6
2022-11-30T16:52:49.635Z,10
2022-11-30T16:58:25.445Z,13
2022-11-30T17:04:00.984Z,2
2022-11-30T17:09:36.584Z,0
2022-11-30T17:15:15.553Z,2
2022-11-30T17:20:51.358Z,4
2022-11-30T17:26:36.332Z,12
2022-11-30T17:32:15.675Z,23
2022-11-30T17:37:50.750Z,10
2022-11-30T17:43:25.977Z,17
2022-11-30T17:49:23.346Z,13
2022-11-30T17:54:57.756Z,16
2022-11-30T18:00:33.043Z,16
2022-11-30T18:06:13.118Z,8
2022-11-30T18:11:48.552Z,8
2022-11-30T18:17:24.043Z,4
2022-11-30T18:22:59.526Z,16
2022-11-30T18:28:34.557Z,8
2022-11-30T18:34:10.347Z,14
2022-11-30T18:39:45.432Z,18
2022-11-30T18:45:23.465Z,4
2022-11-30T18:50:58.383Z,10
2022-11-30T18:56:33.429Z,18
2022-11-30T19:02:09.641Z,18
2022-11-30T19:07:46.042Z,14
2022-11-30T19:13:42.155Z,16
2022-11-30T19:19:24.400Z,18
2022-11-30T19:25:00.176Z,14
2022-11-30T19:30:36.140Z,16
2022-11-30T19:36:26.000Z,18
2022-11-30T19:42:04.885Z,30
2022-11-30T19:47:40.740Z,18
2022-11-30T19:53:20.080Z,64
2022-11-30T19:59:08.119Z,20
2022-11-30T20:04:43.725Z,16
2022-11-30T20:10:19.925Z,31
2022-11-30T20:15:55.664Z,16
2022-11-30T20:21:31.579Z,8
2022-11-30T20:27:06.971Z,22
2022-11-30T20:32:43.511Z,28
2022-11-30T20:38:18.326Z,24
2022-11-30T20:43:56.649Z,28
2022-11-30T20:49:53.470Z,26
2022-11-30T20:55:29.094Z,12
2022-11-30T21:01:04.247Z,8
2022-11-30T21:06:44.099Z,34
2022-11-30T21:13:52.089Z,18
2022-11-30T21:19:28.848Z,40
2022-11-30T21:25:03.759Z,26
2022-11-30T21:30:45.424Z,30
2022-11-30T21:36:20.776Z,40
2022-11-30T21:42:42.385Z,28
2022-11-30T21:48:40.041Z,39
2022-11-30T21:54:13.146Z,32
2022-11-30T21:59:50.660Z,30
2022-11-30T22:05:31.049Z,48
2022-11-30T22:11:26.976Z,20
2022-11-30T22:17:15.831Z,39
2022-11-30T22:23:06.052Z,42
2022-11-30T22:28:41.345Z,53
2022-11-30T22:34:16.646Z,24
2022-11-30T22:39:52.076Z,46
2022-11-30T22:45:27.018Z,8
2022-11-30T22:51:25.513Z,20
2022-11-30T22:57:01.145Z,14
2022-11-30T23:04:18.856Z,30
2022-11-30T23:09:58.043Z,32
2022-11-30T23:15:35.762Z,28
2022-11-30T23:21:10.639Z,26
2022-11-30T23:26:45.645Z,32
2022-11-30T23:32:21.994Z,26
2022-11-30T23:38:06.454Z,24
2022-11-30T23:43:42.825Z,47
2022-11-30T23:49:39.621Z,42
2022-11-30T23:55:15.094Z,38
